Главная страница
METAR-TAF:

METAR-TAF

Аэропорты :

Schenectady County Airport

Скенектади, Нью-Йорк, США

широта: 42-51N, долгота: 073-56W, высота над уровнем моря: 115 м

Текущие метеонаблюдения

Эта сводка был подготовлена 9 часа и 59 минут назад, в 02:50 UTC
Ветер 4 Узел от западный
Температура 3°C
Влажность 75%
Давление 1010 hPa
Видимость: 16.1 км
Сплошная облачность на высоте 2400 фута

METAR: KSCH 170250Z 27004KT 10SM OVC024 03/M01 A2982 RMK LAST

Время: 07:49 (12:49 UTC)


TAF: отсутствует

Метеонаблюдения и прогнозы для более 4000 аэропортов (сводки METAR и TAF).

Имеющиеся станции представлены на карте желтыми и красными точками.

Чтобы увидеть название станции, наведите на нее мышь.

Затем щелкните, чтобы увидеть метеонаблюдения и метеопрогнозы.

Управление картой: чтобы увеличить масштаб, щелкните зеленые кнопки с черным крестиком; чтобы уменьшить масштаб, щелкните зеленую кнопку с тире; для просмотра соседних карт щелкайте зеленые стрелки.


METAR-TAF: